Tiempo atmosférico en la estación meteorológica de Albox, Almería (508 m.)



Fecha
DESCASC
Temp. máxima en grados centígrados (hora)
DESCASC
Temp. mínima en grados centígrados (hora)
DESCASC
Temp. media en grados centígrados
DESCASC
Racha de viento máxima en m/sg (hora)
DESCASC
Velocidad máxima media en intervalos de 10 minutos(hora)
DESCASC
Precipitaciones diarias en mm
DESCASC
Precipitaciones de 00:00 a 06:00 en mm
DESCASC
Precipitaciones de 06:00 a 12:00 en mm
DESCASC
Precipitaciones de 12:00 a 18:00 en mm
DESCASC
Precipitaciones de 18:00 a 24:00 en mm
DESCASC

Gráficas

Temp. máximas Temp. mínimas Temp. medias Precipitaciones Rachas de viento máximas Velocidades máximas media en intervalos de 10 minutos

Datos horarios

Fecha y hora oficial Temperatura (ºC) Velocidad del viento (km/h) Dirección del viento Racha (km/h) Dirección de racha Precipitación (mm) Presión (hPa) Tendencia (hPa) Humedad (%)
2020-05-28 23:00:00 -- -- -- -- -- -- -- -- --
2020-05-28 22:00:00 -- -- -- -- -- -- -- -- --
2020-05-28 21:00:00 -- -- -- -- -- -- -- -- --
2020-05-28 20:00:00 -- -- -- -- -- -- -- -- --
2020-05-28 19:00:00 -- -- -- -- -- -- -- -- --
2020-05-28 18:00:00 27.4 23 Este 36 Este 0 -- -- 29
2020-05-28 17:00:00 27.2 19 Este 38 Este 0 -- -- 32
2020-05-28 16:00:00 25.9 21 Nordeste 40 Este 0 -- -- 33
2020-05-28 15:00:00 23.7 19 Este 39 Este 0 -- -- 37
2020-05-28 14:00:00 24.4 26 Este 42 Nordeste 0 -- -- 38
2020-05-28 13:00:00 25.5 22 Este 36 Este 0 -- -- 37
2020-05-28 12:00:00 25 21 Nordeste 32 Nordeste 0 -- -- 36
2020-05-28 11:00:00 21.6 15 Nordeste 35 Nordeste 0 -- -- 42
2020-05-28 10:00:00 23.1 15 Este 36 Nordeste 0 -- -- 36
2020-05-28 09:00:00 19.9 3 Sudeste 11 Norte 0 -- -- 44
2020-05-28 08:00:00 16.7 0 Calma 7 Noroeste 0 -- -- 51
2020-05-28 07:00:00 15.4 5 Noroeste 8 Noroeste 0 -- -- 58
2020-05-28 06:00:00 15 4 Oeste 9 Norte 0 -- -- 64
2020-05-28 05:00:00 15.3 3 Noroeste 5 Sudoeste 0 -- -- 64
2020-05-28 04:00:00 15.6 2 Sudoeste 10 Oeste 0 -- -- 67
2020-05-28 03:00:00 15.8 7 Oeste 9 Oeste 0 -- -- 77
2020-05-28 02:00:00 16.8 3 Sur 8 Norte 0 -- -- 73
2020-05-28 01:00:00 17.3 4 Norte 9 Este 0 -- -- 73
2020-05-28 00:00:00 18.4 4 Este 9 Sudeste 0 -- -- 71
2020-05-27 23:00:00 19.3 4 Sudeste 12 Este 0 -- -- 68
2020-05-27 22:00:00 20.2 8 Este 21 Sudeste 0 -- -- 63
2020-05-27 21:00:00 22.8 11 Sudeste 22 Sudeste 0 -- -- 52
2020-05-27 20:00:00 25.9 12 Sudeste 47 Este 0 -- -- 43
2020-05-27 19:00:00 27.5 26 Este 41 Este 0 -- -- 34
2020-05-27 18:00:00 28.8 25 Este 40 Este 0 -- -- 29
2020-05-27 17:00:00 28.5 19 Este 42 Nordeste 0 -- -- 29
2020-05-27 16:00:00 27.5 24 Este 44 Nordeste 0 -- -- 32
2020-05-27 15:00:00 29.1 23 Este 46 Este 0 -- -- 32
2020-05-27 14:00:00 28.9 22 Este 41 Sudeste 0 -- -- 33
2020-05-27 13:00:00 27 23 Este 39 Este 0 -- -- 35
2020-05-27 12:00:00 26.4 24 Este 44 Este 0 -- -- 35
2020-05-27 11:00:00 25.1 25 Este 40 Este 0 -- -- 36
2020-05-27 10:00:00 23.5 17 Nordeste 28 Nordeste 0 -- -- 38
2020-05-27 09:00:00 21.1 9 Nordeste 15 Nordeste 0 -- -- 44
2020-05-27 08:00:00 17.2 2 Norte 12 Noroeste 0 -- -- 59
2020-05-27 07:00:00 15.6 11 Noroeste 13 Noroeste 0 -- -- 67
2020-05-27 06:00:00 15.1 5 Norte 8 Norte 0 -- -- 72
2020-05-27 05:00:00 15.9 0 Calma 11 Oeste 0 -- -- 67
2020-05-27 04:00:00 15.7 6 Noroeste 9 Oeste 0 -- -- 69
2020-05-27 03:00:00 16.1 7 Noroeste 14 Oeste 0 -- -- 69
2020-05-27 02:00:00 16.5 8 Oeste 15 Oeste 0 -- -- 78
2020-05-27 01:00:00 17.4 2 Oeste 5 Oeste 0 -- -- 75
2020-05-27 00:00:00 18.2 0 Calma 8 Sudeste 0 -- -- 70
2020-05-26 23:00:00 19 6 Sudeste 23 Este 0 -- -- 72
2020-05-26 22:00:00 20 6 Este 19 Este 0 -- -- 70
2020-05-26 21:00:00 22.2 7 Sudeste 18 Sudeste 0 -- -- 63
2020-05-26 20:00:00 24.8 11 Sudeste 25 Sudeste 0 -- -- 55
2020-05-26 19:00:00 27 14 Sudeste 25 Sudeste 0 -- -- 49
2020-05-26 18:00:00 27.6 14 Sudeste 29 Sudeste 0 -- -- 47
2020-05-26 17:00:00 28.1 17 Sudeste 32 Sudeste 0 -- -- 44
2020-05-26 16:00:00 29.2 17 Sudeste 33 Este 0 -- -- 42
2020-05-26 15:00:00 29.5 17 Sudeste 35 Este 0 -- -- 36
2020-05-26 14:00:00 28.8 22 Este 37 Este 0 -- -- 33
2020-05-26 13:00:00 28 21 Este 32 Este 0 -- -- 33
2020-05-26 12:00:00 27.3 16 Este 27 Este 0 -- -- 35
2020-05-26 11:00:00 24.9 13 Sudeste 23 Este 0 -- -- 39
2020-05-26 10:00:00 21.8 4 Norte 9 Nordeste 0 -- -- 46
2020-05-26 09:00:00 18.8 0 Calma 7 Norte 0 -- -- 57
2020-05-26 08:00:00 16.4 6 Noroeste 8 Noroeste 0 -- -- 67
2020-05-26 07:00:00 16.2 4 Noroeste 8 Noroeste 0 -- -- 66
2020-05-26 06:00:00 16.2 6 Noroeste 10 Noroeste 0 -- -- 67
2020-05-26 05:00:00 16 6 Noroeste 9 Noroeste 0 -- -- 67
2020-05-26 04:00:00 16.1 2 Noroeste 5 Sudoeste 0 -- -- 66
2020-05-26 03:00:00 16.3 2 Oeste 6 Noroeste 0 -- -- 67
2020-05-26 02:00:00 16.6 3 Nordeste 6 Norte 0 -- -- 67
2020-05-26 01:00:00 17.4 2 Sudeste 6 Noroeste 0 -- -- 64
2020-05-26 00:00:00 17.9 5 Noroeste 7 Noroeste 0 -- -- 63
2020-05-25 23:00:00 18.4 4 Noroeste 5 Noroeste 0 -- -- 58
2020-05-25 22:00:00 19.3 2 Sudoeste 7 Sudeste 0 -- -- 54
2020-05-25 21:00:00 20.6 7 Sudeste 22 Este 0 -- -- 52
2020-05-25 20:00:00 23.4 13 Sudeste 28 Este 0 -- -- 46
2020-05-25 19:00:00 26.4 15 Sudeste 34 Este 0 -- -- 41
2020-05-25 18:00:00 27.5 17 Sudeste 35 Sudeste 0 -- -- 37
2020-05-25 17:00:00 28.5 19 Sudeste 33 Sudeste 0 -- -- 35
2020-05-25 16:00:00 28.9 19 Sudeste 33 Este 0 -- -- 33
2020-05-25 15:00:00 29.1 17 Sudeste 32 Este 0 -- -- 31
2020-05-25 14:00:00 28.2 17 Sudeste 31 Este 0 -- -- 28
2020-05-25 13:00:00 27.8 18 Este 35 Sudeste 0 -- -- 33
2020-05-25 12:00:00 26.6 14 Sudeste 28 Este 0 -- -- 36
2020-05-25 11:00:00 24.1 5 Este 13 Sudeste 0 -- -- 38
2020-05-25 10:00:00 21.5 4 Sudeste 8 Este 0 -- -- 42
2020-05-25 09:00:00 18.8 4 Este 6 Este 0 -- -- 52
2020-05-25 08:00:00 15.7 4 Noroeste 13 Norte 0 -- -- 52
2020-05-25 07:00:00 15.1 9 Norte 13 Noroeste 0 -- -- 54
2020-05-25 06:00:00 14.6 4 Oeste 13 Noroeste 0 -- -- 58
2020-05-25 05:00:00 15.5 9 Noroeste 12 Norte 0 -- -- 53
2020-05-25 04:00:00 15.7 6 Norte 12 Norte 0 -- -- 72